Station Historical Data
Daily Summary for March 30, 2012 Units:  English    Metric   Both
« Previous Day
Next Day »
Daily Weekly Monthly Yearly Custom
  High: Low: Average:
Temperature: 68.8 °F 61.2 °F 63.9 °F
Dew Point: 64.7 °F 58.6 °F 61 °F
Humidity: 94% 82% 90%
Wind Speed: 13.0mph 0.0mph 1.8mph
Wind Gust: 13.0mph - -
Wind- - South
Pressure: 29.92 in 29.77 in -
Precipitation: 0.30 in    
Historical Graphs
 
 
Tabular Data for March 30, 2012
Time Temperature Dew Point Pressure Wind Wind Speed Wind Gust Humidity Rainfall Rate (Hourly) Conditions
00:00 64.8 °F 59.5 °F 29.90 in SSE 1.0 mph 2.0 mph 83% 0.00 in
00:02 64.9 °F 59.6 °F 29.90 in Calm   1.0 mph 83% 0.00 in
00:07 65.1 °F 59.8 °F 29.90 in SSE 1.0 mph 2.0 mph 83% 0.00 in
00:12 65.2 °F 59.9 °F 29.90 in SSE 1.0 mph 1.0 mph 83% 0.00 in
00:17 65.2 °F 59.6 °F 29.90 in SSE 1.0 mph 2.0 mph 82% 0.00 in
00:22 65.1 °F 59.8 °F 29.90 in SSE 1.0 mph 2.0 mph 83% 0.00 in
00:27 65.2 °F 59.9 °F 29.89 in SSE 1.0 mph 2.0 mph 83% 0.00 in
00:32 65.1 °F 59.8 °F 29.90 in SSE 1.0 mph 2.0 mph 83% 0.00 in
00:37 64.8 °F 59.9 °F 29.89 in SSE 2.0 mph 2.0 mph 84% 0.00 in
00:42 64.7 °F 59.8 °F 29.89 in South 1.0 mph 2.0 mph 84% 0.00 in
00:47 64.8 °F 59.9 °F 29.89 in SSE 1.0 mph 2.0 mph 84% 0.00 in
00:52 64.8 °F 59.9 °F 29.89 in SSE 1.0 mph 1.0 mph 84% 0.00 in
00:58 64.7 °F 59.8 °F 29.89 in SSE 1.0 mph 1.0 mph 84% 0.00 in
01:03 64.6 °F 59.7 °F 29.89 in SE 1.0 mph 1.0 mph 84% 0.00 in
01:08 64.4 °F 59.8 °F 29.89 in SSE 1.0 mph 2.0 mph 85% 0.00 in
01:13 64.4 °F 59.8 °F 29.89 in SSE 1.0 mph 2.0 mph 85% 0.00 in
01:18 64.4 °F 59.8 °F 29.89 in SSE 1.0 mph 2.0 mph 85% 0.00 in
01:23 64.3 °F 59.7 °F 29.88 in SSE 3.0 mph 3.0 mph 85% 0.00 in
01:28 64.2 °F 59.6 °F 29.88 in SSE 2.0 mph 3.0 mph 85% 0.00 in
01:33 63.8 °F 59.5 °F 29.88 in SE 1.0 mph 2.0 mph 86% 0.00 in
01:38 63.8 °F 59.9 °F 29.88 in Calm   2.0 mph 87% 0.00 in
01:43 63.9 °F 60.0 °F 29.88 in SSE 1.0 mph 1.0 mph 87% 0.00 in
01:48 63.9 °F 59.6 °F 29.88 in Calm   1.0 mph 86% 0.00 in
01:53 63.5 °F 59.6 °F 29.87 in SSE 1.0 mph 1.0 mph 87% 0.00 in
01:58 63.2 °F 59.3 °F 29.87 in SE 1.0 mph 1.0 mph 87% 0.00 in
02:03 62.9 °F 59.3 °F 29.87 in SE 1.0 mph 1.0 mph 88% 0.00 in
02:08 62.8 °F 59.2 °F 29.87 in Calm   2.0 mph 88% 0.00 in
02:13 62.8 °F 59.5 °F 29.87 in SSE 1.0 mph 2.0 mph 89% 0.00 in
02:18 62.9 °F 59.6 °F 29.87 in SSE 1.0 mph 1.0 mph 89% 0.00 in
02:23 62.9 °F 59.6 °F 29.87 in Calm   1.0 mph 89% 0.00 in
02:28 62.8 °F 59.5 °F 29.87 in Calm   1.0 mph 89% 0.00 in
02:33 62.7 °F 59.4 °F 29.87 in Calm   1.0 mph 89% 0.00 in
02:38 62.6 °F 59.3 °F 29.87 in Calm     89% 0.00 in
02:43 62.5 °F 59.2 °F 29.87 in Calm     89% 0.00 in
02:48 62.3 °F 59.3 °F 29.87 in Calm     90% 0.00 in
02:53 62.3 °F 59.3 °F 29.87 in Calm     90% 0.00 in
02:58 62.3 °F 59.3 °F 29.87 in SSE 1.0 mph 1.0 mph 90% 0.00 in
03:04 62.2 °F 59.2 °F 29.87 in SE 2.0 mph 3.0 mph 90% 0.00 in
03:09 62.1 °F 59.1 °F 29.87 in SSE 2.0 mph 2.0 mph 90% 0.00 in
03:14 62.0 °F 59.0 °F 29.87 in SE 2.0 mph 2.0 mph 90% 0.00 in
03:19 62.0 °F 59.0 °F 29.87 in SE 1.0 mph 2.0 mph 90% 0.00 in
03:24 61.9 °F 59.2 °F 29.87 in SE 2.0 mph 2.0 mph 91% 0.00 in
03:29 61.9 °F 59.2 °F 29.87 in SSE 1.0 mph 2.0 mph 91% 0.00 in
03:34 61.9 °F 59.2 °F 29.86 in SSE 1.0 mph 2.0 mph 91% 0.00 in
03:39 61.8 °F 59.2 °F 29.86 in SSE 1.0 mph 1.0 mph 91% 0.00 in
03:44 61.7 °F 59.0 °F 29.86 in SSE 1.0 mph 1.0 mph 91% 0.00 in
03:49 61.5 °F 58.8 °F 29.86 in SSE 2.0 mph 2.0 mph 91% 0.00 in
03:54 61.3 °F 58.7 °F 29.86 in SE 2.0 mph 2.0 mph 91% 0.00 in
03:59 61.2 °F 58.6 °F 29.86 in SSE 1.0 mph 3.0 mph 91% 0.00 in
04:04 61.2 °F 58.9 °F 29.86 in SE 2.0 mph 3.0 mph 92% 0.00 in
04:09 61.4 °F 59.1 °F 29.86 in SSE 2.0 mph 2.0 mph 92% 0.00 in
04:14 61.6 °F 59.3 °F 29.86 in Calm   1.0 mph 92% 0.00 in
04:19 61.7 °F 59.4 °F 29.86 in SSE 1.0 mph 1.0 mph 92% 0.00 in
04:24 61.8 °F 59.2 °F 29.86 in Calm     91% 0.00 in
04:29 61.9 °F 59.2 °F 29.86 in Calm     91% 0.00 in
04:34 62.0 °F 59.3 °F 29.86 in Calm     91% 0.00 in
04:40 62.1 °F 59.5 °F 29.86 in ESE 1.0 mph 1.0 mph 91% 0.00 in
04:45 62.2 °F 59.2 °F 29.86 in SE 1.0 mph 2.0 mph 90% 0.00 in
04:50 62.1 °F 59.1 °F 29.86 in Calm     90% 0.00 in
04:55 62.0 °F 59.3 °F 29.87 in Calm     91% 0.00 in
05:00 61.8 °F 59.2 °F 29.87 in Calm     91% 0.00 in
05:05 61.6 °F 59.0 °F 29.87 in Calm     91% 0.00 in
05:10 61.8 °F 59.5 °F 29.87 in Calm     92% 0.00 in
05:15 62.1 °F 59.5 °F 29.87 in Calm     91% 0.00 in
05:20 62.3 °F 59.6 °F 29.87 in Calm     91% 0.00 in
05:25 62.3 °F 59.6 °F 29.87 in Calm     91% 0.00 in
05:30 62.4 °F 59.7 °F 29.87 in SE 1.0 mph 1.0 mph 91% 0.00 in
05:35 62.5 °F 59.8 °F 29.87 in Calm   1.0 mph 91% 0.00 in
05:40 62.4 °F 59.7 °F 29.87 in SSE 1.0 mph 1.0 mph 91% 0.00 in
05:45 62.3 °F 59.6 °F 29.87 in SSE 2.0 mph 2.0 mph 91% 0.00 in
05:46 62.3 °F 59.6 °F 29.87 in SSE 2.0 mph 2.0 mph 91% 0.00 in
05:51 62.4 °F 59.7 °F 29.87 in SSE 2.0 mph 3.0 mph 91% 0.00 in
05:56 62.5 °F 59.5 °F 29.87 in SE 3.0 mph 3.0 mph 90% 0.00 in
06:01 62.5 °F 59.5 °F 29.87 in SSE 2.0 mph 3.0 mph 90% 0.00 in
06:06 62.4 °F 59.4 °F 29.87 in Calm   2.0 mph 90% 0.00 in
06:11 62.2 °F 59.2 °F 29.87 in Calm     90% 0.00 in
06:16 62.1 °F 59.5 °F 29.87 in Calm     91% 0.00 in
06:21 61.9 °F 59.2 °F 29.87 in South 1.0 mph 2.0 mph 91% 0.00 in
06:26 61.8 °F 59.2 °F 29.87 in SSE 1.0 mph 2.0 mph 91% 0.00 in
06:31 61.7 °F 59.0 °F 29.87 in SE 1.0 mph 1.0 mph 91% 0.00 in
06:36 61.6 °F 59.0 °F 29.87 in Calm   1.0 mph 91% 0.00 in
06:41 61.6 °F 59.3 °F 29.88 in Calm   1.0 mph 92% 0.00 in
06:46 61.7 °F 59.4 °F 29.88 in SE 1.0 mph 1.0 mph 92% 0.00 in
06:51 61.7 °F 59.4 °F 29.88 in SE 2.0 mph 2.0 mph 92% 0.00 in
06:57 61.8 °F 59.5 °F 29.88 in ESE 1.0 mph 2.0 mph 92% 0.00 in
07:02 61.8 °F 59.2 °F 29.88 in Calm   1.0 mph 91% 0.00 in
07:07 61.7 °F 59.0 °F 29.88 in Calm     91% 0.00 in
07:12 61.6 °F 59.0 °F 29.89 in SSE 1.0 mph 1.0 mph 91% 0.00 in
07:17 61.7 °F 59.4 °F 29.89 in South 1.0 mph 1.0 mph 92% 0.00 in
07:22 61.6 °F 59.3 °F 29.89 in Calm     92% 0.00 in
07:27 61.6 °F 59.3 °F 29.89 in Calm   1.0 mph 92% 0.00 in
07:32 61.5 °F 59.2 °F 29.89 in South 1.0 mph 1.0 mph 92% 0.00 in
07:37 61.5 °F 59.2 °F 29.89 in Calm   1.0 mph 92% 0.00 in
07:43 61.4 °F 59.1 °F 29.89 in Calm     92% 0.00 in
07:48 61.4 °F 59.1 °F 29.89 in Calm     92% 0.00 in
07:53 61.5 °F 59.2 °F 29.89 in SE 1.0 mph 1.0 mph 92% 0.00 in
07:58 61.6 °F 59.3 °F 29.89 in Calm     92% 0.00 in
08:03 61.7 °F 59.4 °F 29.89 in Calm     92% 0.00 in
08:08 61.8 °F 59.5 °F 29.89 in Calm     92% 0.00 in
08:13 61.9 °F 59.5 °F 29.89 in Calm     92% 0.00 in
08:18 61.9 °F 59.5 °F 29.89 in Calm     92% 0.00 in
08:23 62.0 °F 59.7 °F 29.89 in Calm     92% 0.00 in
08:28 62.0 °F 59.7 °F 29.90 in Calm     92% 0.00 in
08:33 62.1 °F 59.8 °F 29.90 in Calm     92% 0.00 in
08:38 62.3 °F 60.0 °F 29.90 in Calm     92% 0.00 in
08:43 62.4 °F 60.0 °F 29.90 in Calm     92% 0.00 in
08:48 62.5 °F 60.2 °F 29.91 in Calm   1.0 mph 92% 0.00 in
08:53 62.8 °F 60.5 °F 29.91 in SSE 3.0 mph 3.0 mph 92% 0.00 in
08:58 63.0 °F 60.3 °F 29.91 in SSW 3.0 mph 5.0 mph 91% 0.00 in
09:03 63.3 °F 60.6 °F 29.91 in South 4.0 mph 5.0 mph 91% 0.00 in
09:08 63.4 °F 60.7 °F 29.91 in South 4.0 mph 5.0 mph 91% 0.00 in
09:13 63.6 °F 60.6 °F 29.91 in South 3.0 mph 4.0 mph 90% 0.00 in
09:18 63.8 °F 60.8 °F 29.91 in South 2.0 mph 4.0 mph 90% 0.00 in
09:23 63.9 °F 60.9 °F 29.90 in SSW 2.0 mph 3.0 mph 90% 0.00 in
09:28 64.1 °F 61.1 °F 29.90 in South 3.0 mph 4.0 mph 90% 0.00 in
09:33 64.3 °F 61.3 °F 29.90 in SSW 2.0 mph 3.0 mph 90% 0.00 in
09:38 64.6 °F 61.6 °F 29.90 in SW 4.0 mph 5.0 mph 90% 0.00 in
09:44 64.8 °F 61.8 °F 29.91 in SSW 2.0 mph 3.0 mph 90% 0.00 in
09:49 65.2 °F 62.2 °F 29.91 in SW 4.0 mph 4.0 mph 90% 0.00 in
09:54 65.6 °F 62.6 °F 29.91 in SW 2.0 mph 6.0 mph 90% 0.00 in
09:59 65.7 °F 62.0 °F 29.91 in SSW 3.0 mph 7.0 mph 88% 0.00 in
10:04 65.6 °F 62.0 °F 29.91 in SW 2.0 mph 6.0 mph 88% 0.00 in
10:09 65.8 °F 62.2 °F 29.91 in SSW 2.0 mph 5.0 mph 88% 0.00 in
10:14 65.8 °F 62.2 °F 29.91 in WNW 2.0 mph 4.0 mph 88% 0.00 in
10:19 65.8 °F 62.2 °F 29.90 in West 2.0 mph 4.0 mph 88% 0.00 in
10:24 65.9 °F 62.2 °F 29.90 in SW 2.0 mph 5.0 mph 88% 0.00 in
10:29 66.0 °F 62.3 °F 29.91 in WSW 2.0 mph 3.0 mph 88% 0.00 in
10:34 66.0 °F 62.3 °F 29.91 in West 3.0 mph 5.0 mph 88% 0.00 in
10:39 66.2 °F 62.2 °F 29.91 in WSW 3.0 mph 5.0 mph 87% 0.00 in
10:44 66.2 °F 62.5 °F 29.91 in SW 3.0 mph 4.0 mph 88% 0.00 in
10:49 66.1 °F 62.5 °F 29.90 in WSW 3.0 mph 3.0 mph 88% 0.00 in
10:50 66.0 °F 62.3 °F 29.90 in West 2.0 mph 3.0 mph 88% 0.00 in
10:55 65.9 °F 61.9 °F 29.90 in WSW 2.0 mph 4.0 mph 87% 0.00 in
11:00 66.1 °F 62.1 °F 29.91 in WSW 4.0 mph 6.0 mph 87% 0.00 in
11:05 66.0 °F 62.0 °F 29.90 in WSW 3.0 mph 5.0 mph 87% 0.00 in
11:11 66.0 °F 62.3 °F 29.90 in WSW 5.0 mph 5.0 mph 88% 0.00 in
11:16 65.7 °F 61.7 °F 29.90 in SW 2.0 mph 6.0 mph 87% 0.00 in
11:21 65.6 °F 61.6 °F 29.90 in WSW 4.0 mph 5.0 mph 87% 0.00 in
11:25 65.5 °F 61.5 °F 29.91 in West 3.0 mph 5.0 mph 87% 0.00 in
11:31 65.2 °F 61.6 °F 29.91 in WSW 3.0 mph 4.0 mph 88% 0.00 in
11:36 65.0 °F 61.7 °F 29.91 in WSW 4.0 mph 6.0 mph 89% 0.00 in
11:41 64.7 °F 61.4 °F 29.91 in West 3.0 mph 4.0 mph 89% 0.00 in
11:46 64.6 °F 61.6 °F 29.91 in West 2.0 mph 3.0 mph 90% 0.00 in
11:51 64.4 °F 61.4 °F 29.91 in West 2.0 mph 3.0 mph 90% 0.00 in
11:56 64.3 °F 61.3 °F 29.91 in SW 2.0 mph 4.0 mph 90% 0.00 in
12:01 64.1 °F 61.1 °F 29.92 in WSW 3.0 mph 4.0 mph 90% 0.00 in
12:06 64.0 °F 61.0 °F 29.92 in WSW 3.0 mph 6.0 mph 90% 0.00 in
12:11 63.8 °F 61.1 °F 29.92 in WSW 3.0 mph 4.0 mph 91% 0.00 in
12:16 63.6 °F 60.9 °F 29.92 in SW 3.0 mph 7.0 mph 91% 0.00 in
12:22 63.4 °F 60.7 °F 29.92 in WSW 3.0 mph 6.0 mph 91% 0.00 in
12:27 63.3 °F 60.9 °F 29.92 in Calm   2.0 mph 92% 0.16 in
12:32 63.0 °F 60.3 °F 29.92 in West 1.0 mph 2.0 mph 91% 0.08 in
12:37 62.8 °F 60.1 °F 29.91 in West 1.0 mph 1.0 mph 91% 0.08 in
12:42 62.6 °F 60.2 °F 29.91 in NW 1.0 mph 2.0 mph 92% 0.15 in
12:43 62.6 °F 60.2 °F 29.91 in NW 1.0 mph 2.0 mph 92% 0.15 in
12:48 62.4 °F 60.0 °F 29.91 in NW 1.0 mph 3.0 mph 92% 0.16 in
12:53 62.3 °F 60.2 °F 29.91 in Calm   1.0 mph 93% 0.15 in
12:58 62.2 °F 60.2 °F 29.91 in Calm   2.0 mph 93% 0.18 in
13:03 62.2 °F 60.2 °F 29.91 in West 1.0 mph 1.0 mph 93% 0.15 in
13:08 62.1 °F 60.1 °F 29.91 in Calm   2.0 mph 93% 0.12 in
13:13 62.0 °F 60.3 °F 29.91 in West 1.0 mph 3.0 mph 94% 0.16 in
13:18 62.0 °F 60.3 °F 29.91 in Calm   2.0 mph 94% 0.31 in
13:23 62.0 °F 60.3 °F 29.91 in West 1.0 mph 1.0 mph 94% 0.29 in
13:28 61.9 °F 60.2 °F 29.91 in WNW 2.0 mph 3.0 mph 94% 0.30 in
13:33 61.9 °F 60.2 °F 29.90 in Calm   1.0 mph 94% 0.21 in
13:38 62.0 °F 60.3 °F 29.90 in Calm   1.0 mph 94% 0.14 in
13:43 61.9 °F 60.2 °F 29.90 in West 2.0 mph 3.0 mph 94% 0.09 in
13:49 61.8 °F 60.1 °F 29.90 in Calm   1.0 mph 94% 0.09 in
13:54 61.9 °F 60.2 °F 29.89 in WNW 1.0 mph 3.0 mph 94% 0.06 in
13:59 61.9 °F 60.2 °F 29.89 in Calm   1.0 mph 94% 0.09 in
14:04 62.0 °F 60.3 °F 29.89 in Calm   2.0 mph 94% 0.09 in
14:09 62.0 °F 60.3 °F 29.88 in Calm   1.0 mph 94% 0.08 in
14:14 62.2 °F 60.5 °F 29.88 in Calm   1.0 mph 94% 0.07 in
14:19 62.2 °F 60.5 °F 29.87 in ESE 1.0 mph 2.0 mph 94% 0.05 in
14:24 62.2 °F 60.5 °F 29.87 in East 2.0 mph 3.0 mph 94% 0.05 in
14:29 62.5 °F 60.8 °F 29.87 in East 2.0 mph 4.0 mph 94% 0.05 in
14:34 62.6 °F 60.8 °F 29.86 in SE 4.0 mph 4.0 mph 94% 0.05 in
14:39 62.7 °F 61.0 °F 29.86 in SE 3.0 mph 6.0 mph 94% 0.05 in
14:44 62.8 °F 61.0 °F 29.86 in ESE 4.0 mph 5.0 mph 94% 0.04 in
14:49 63.0 °F 61.2 °F 29.85 in ESE 5.0 mph 7.0 mph 94% 0.00 in
14:54 62.9 °F 60.8 °F 29.85 in ESE 7.0 mph 7.0 mph 93% 0.00 in
14:59 63.0 °F 61.0 °F 29.85 in East 5.0 mph 6.0 mph 93% 0.00 in
15:05 63.3 °F 61.5 °F 29.84 in ESE 5.0 mph 7.0 mph 94% 0.00 in
15:10 63.6 °F 61.8 °F 29.84 in ESE 4.0 mph 7.0 mph 94% 0.00 in
15:15 63.9 °F 61.8 °F 29.84 in East 6.0 mph 8.0 mph 93% 0.00 in
15:20 64.0 °F 61.9 °F 29.84 in ESE 6.0 mph 8.0 mph 93% 0.00 in
15:25 64.2 °F 62.1 °F 29.84 in SE 5.0 mph 7.0 mph 93% 0.00 in
15:30 64.4 °F 62.3 °F 29.83 in SE 4.0 mph 8.0 mph 93% 0.00 in
15:35 65.0 °F 62.9 °F 29.83 in ESE 7.0 mph 8.0 mph 93% 0.00 in
15:40 65.1 °F 62.7 °F 29.83 in ESE 5.0 mph 10.0 mph 92% 0.00 in
15:45 65.6 °F 63.2 °F 29.82 in ESE 7.0 mph 10.0 mph 92% 0.00 in
15:50 65.9 °F 63.2 °F 29.82 in ESE 13.0 mph 13.0 mph 91% 0.00 in
15:55 65.9 °F 63.2 °F 29.82 in ESE 7.0 mph 11.0 mph 91% 0.00 in
16:00 66.0 °F 63.6 °F 29.81 in SE 4.0 mph 6.0 mph 92% 0.00 in
16:05 66.2 °F 63.5 °F 29.81 in ESE 9.0 mph 9.0 mph 91% 0.00 in
16:10 66.2 °F 63.5 °F 29.80 in SSE 6.0 mph 8.0 mph 91% 0.00 in
16:15 66.4 °F 63.7 °F 29.80 in SE 8.0 mph 10.0 mph 91% 0.00 in
16:20 66.5 °F 63.8 °F 29.80 in SSE 5.0 mph 10.0 mph 91% 0.00 in
16:25 66.8 °F 64.1 °F 29.80 in SE 7.0 mph 13.0 mph 91% 0.00 in
16:30 67.1 °F 64.4 °F 29.79 in SE 9.0 mph 13.0 mph 91% 0.00 in
16:35 67.2 °F 64.5 °F 29.79 in ESE 6.0 mph 11.0 mph 91% 0.00 in
16:36 67.2 °F 64.5 °F 29.79 in SE 7.0 mph 11.0 mph 91% 0.00 in
16:41 67.1 °F 64.1 °F 29.79 in SE 4.0 mph 8.0 mph 90% 0.00 in
16:46 67.0 °F 63.7 °F 29.80 in SSE 2.0 mph 8.0 mph 89% 0.00 in
16:51 67.2 °F 64.2 °F 29.80 in SSE 7.0 mph 8.0 mph 90% 0.00 in
16:56 67.3 °F 64.0 °F 29.80 in South 2.0 mph 7.0 mph 89% 0.00 in
17:01 67.6 °F 64.2 °F 29.80 in SSW 3.0 mph 4.0 mph 89% 0.00 in
17:06 67.6 °F 63.9 °F 29.79 in South 2.0 mph 6.0 mph 88% 0.00 in
17:11 67.7 °F 64.0 °F 29.79 in South 2.0 mph 4.0 mph 88% 0.00 in
17:16 68.4 °F 64.7 °F 29.79 in SSW 3.0 mph 4.0 mph 88% 0.00 in
17:21 68.4 °F 64.4 °F 29.78 in West 2.0 mph 6.0 mph 87% 0.00 in
17:26 68.3 °F 64.3 °F 29.78 in WSW 4.0 mph 6.0 mph 87% 0.00 in
17:31 68.3 °F 64.0 °F 29.78 in SW 3.0 mph 6.0 mph 86% 0.00 in
17:36 68.3 °F 64.3 °F 29.78 in Calm   5.0 mph 87% 0.00 in
17:41 68.4 °F 64.4 °F 29.78 in SW 1.0 mph 2.0 mph 87% 0.00 in
17:46 68.4 °F 64.1 °F 29.78 in SW 2.0 mph 3.0 mph 86% 0.00 in
17:52 68.4 °F 63.7 °F 29.77 in WSW 2.0 mph 4.0 mph 85% 0.00 in
17:57 68.6 °F 63.6 °F 29.77 in SW 4.0 mph 5.0 mph 84% 0.00 in
18:02 68.5 °F 63.5 °F 29.77 in SSW 2.0 mph 4.0 mph 84% 0.00 in
18:07 68.6 °F 63.9 °F 29.77 in SSW 1.0 mph 3.0 mph 85% 0.00 in
18:12 68.8 °F 64.1 °F 29.78 in West 1.0 mph 3.0 mph 85% 0.00 in
18:17 68.7 °F 64.3 °F 29.78 in West 1.0 mph 2.0 mph 86% 0.00 in
18:22 68.5 °F 63.8 °F 29.78 in NW 1.0 mph 4.0 mph 85% 0.00 in
18:27 68.2 °F 63.9 °F 29.78 in NNW 1.0 mph 2.0 mph 86% 0.00 in
18:32 68.0 °F 63.7 °F 29.78 in WNW 4.0 mph 5.0 mph 86% 0.00 in
18:37 67.8 °F 63.8 °F 29.79 in NW 2.0 mph 4.0 mph 87% 0.00 in
18:42 67.6 °F 63.6 °F 29.79 in NW 5.0 mph 5.0 mph 87% 0.00 in
18:48 67.4 °F 63.4 °F 29.79 in NW 4.0 mph 7.0 mph 87% 0.00 in
18:53 67.2 °F 63.2 °F 29.79 in NW 3.0 mph 5.0 mph 87% 0.00 in
18:58 67.1 °F 63.1 °F 29.79 in NW 4.0 mph 4.0 mph 87% 0.00 in
19:03 66.9 °F 63.2 °F 29.79 in NW 2.0 mph 4.0 mph 88% 0.00 in
19:08 66.9 °F 63.2 °F 29.80 in NW 2.0 mph 4.0 mph 88% 0.00 in
19:13 66.9 °F 63.2 °F 29.80 in NW 4.0 mph 4.0 mph 88% 0.00 in
19:18 66.8 °F 63.1 °F 29.80 in NW 3.0 mph 5.0 mph 88% 0.00 in
19:23 66.7 °F 63.0 °F 29.80 in NW 2.0 mph 3.0 mph 88% 0.00 in
19:28 66.7 °F 63.0 °F 29.79 in North 1.0 mph 2.0 mph 88% 0.00 in
19:33 66.7 °F 63.0 °F 29.79 in Calm   1.0 mph 88% 0.00 in
19:38 66.6 °F 62.9 °F 29.79 in SE 2.0 mph 3.0 mph 88% 0.00 in
19:43 66.6 °F 63.3 °F 29.80 in SE 1.0 mph 2.0 mph 89% 0.00 in
19:48 66.5 °F 63.2 °F 29.80 in SE 2.0 mph 2.0 mph 89% 0.00 in
19:53 66.3 °F 63.0 °F 29.80 in SE 4.0 mph 4.0 mph 89% 0.00 in
19:58 66.1 °F 63.1 °F 29.80 in SSE 5.0 mph 6.0 mph 90% 0.00 in
20:03 66.0 °F 63.0 °F 29.79 in ESE 3.0 mph 4.0 mph 90% 0.00 in
20:08 65.8 °F 62.8 °F 29.79 in SSE 2.0 mph 3.0 mph 90% 0.00 in
20:13 65.6 °F 62.6 °F 29.79 in SSE 3.0 mph 3.0 mph 90% 0.00 in
20:19 65.4 °F 62.4 °F 29.79 in SE 2.0 mph 3.0 mph 90% 0.00 in
20:24 65.2 °F 62.5 °F 29.79 in ESE 2.0 mph 3.0 mph 91% 0.00 in
20:29 65.0 °F 62.3 °F 29.79 in SE 1.0 mph 3.0 mph 91% 0.00 in
20:34 64.8 °F 62.1 °F 29.79 in ESE 2.0 mph 2.0 mph 91% 0.00 in
20:39 64.7 °F 62.0 °F 29.79 in SE 2.0 mph 2.0 mph 91% 0.00 in
20:44 64.6 °F 62.2 °F 29.79 in Calm   2.0 mph 92% 0.00 in
20:49 64.3 °F 61.9 °F 29.79 in Calm     92% 0.00 in
20:54 63.7 °F 61.0 °F 29.80 in SE 1.0 mph 1.0 mph 91% 0.00 in
20:59 63.2 °F 60.8 °F 29.80 in Calm   1.0 mph 92% 0.00 in
21:04 62.9 °F 60.8 °F 29.80 in Calm     93% 0.00 in
21:09 62.8 °F 60.8 °F 29.80 in Calm     93% 0.00 in
21:14 62.7 °F 61.0 °F 29.80 in Calm     94% 0.00 in
21:19 62.6 °F 60.8 °F 29.80 in Calm     94% 0.00 in
21:24 62.2 °F 60.5 °F 29.80 in Calm     94% 0.00 in
21:29 62.3 °F 60.6 °F 29.80 in Calm     94% 0.00 in
21:34 62.4 °F 60.7 °F 29.81 in SE 1.0 mph 1.0 mph 94% 0.00 in
21:39 62.5 °F 60.8 °F 29.81 in Calm     94% 0.00 in
21:44 62.6 °F 60.8 °F 29.81 in Calm     94% 0.00 in
21:49 62.5 °F 60.8 °F 29.81 in Calm     94% 0.00 in
21:54 62.6 °F 60.8 °F 29.82 in Calm     94% 0.00 in
21:59 62.7 °F 61.0 °F 29.82 in SE 1.0 mph 1.0 mph 94% 0.00 in
22:04 62.6 °F 60.8 °F 29.82 in SE 1.0 mph 1.0 mph 94% 0.00 in
22:09 62.5 °F 60.8 °F 29.82 in Calm     94% 0.00 in
22:14 62.3 °F 60.6 °F 29.82 in SE 1.0 mph 1.0 mph 94% 0.00 in
22:19 62.3 °F 60.6 °F 29.82 in Calm   1.0 mph 94% 0.00 in
22:24 62.3 °F 60.6 °F 29.82 in SE 1.0 mph 2.0 mph 94% 0.00 in
22:29 62.3 °F 60.6 °F 29.83 in SSE 1.0 mph 1.0 mph 94% 0.00 in
22:35 62.4 °F 60.7 °F 29.83 in SSE 1.0 mph 3.0 mph 94% 0.00 in
22:40 62.5 °F 60.8 °F 29.83 in SSE 2.0 mph 2.0 mph 94% 0.00 in
22:45 62.6 °F 60.8 °F 29.83 in SSE 1.0 mph 2.0 mph 94% 0.00 in
22:50 62.7 °F 61.0 °F 29.83 in SE 1.0 mph 2.0 mph 94% 0.00 in
22:55 62.7 °F 61.0 °F 29.83 in SSE 1.0 mph 1.0 mph 94% 0.00 in
23:00 62.8 °F 61.0 °F 29.83 in Calm   1.0 mph 94% 0.00 in
23:05 62.9 °F 61.2 °F 29.83 in Calm   2.0 mph 94% 0.00 in
23:06 62.9 °F 61.2 °F 29.83 in Calm   2.0 mph 94% 0.00 in
23:11 62.9 °F 61.2 °F 29.83 in South 1.0 mph 1.0 mph 94% 0.00 in
23:16 63.0 °F 61.2 °F 29.83 in Calm   2.0 mph 94% 0.00 in
23:21 62.9 °F 61.2 °F 29.83 in SSE 2.0 mph 2.0 mph 94% 0.00 in
23:26 62.7 °F 61.0 °F 29.83 in South 2.0 mph 3.0 mph 94% 0.00 in
23:31 62.6 °F 60.8 °F 29.83 in South 1.0 mph 2.0 mph 94% 0.00 in
23:36 62.6 °F 60.8 °F 29.83 in South 1.0 mph 2.0 mph 94% 0.00 in
23:41 62.7 °F 61.0 °F 29.83 in South 1.0 mph 3.0 mph 94% 0.00 in
23:46 62.7 °F 61.0 °F 29.83 in SSW 1.0 mph 3.0 mph 94% 0.00 in
23:51 62.7 °F 61.0 °F 29.83 in SSW 2.0 mph 2.0 mph 94% 0.00 in
23:56 62.7 °F 61.0 °F 29.83 in SSW 1.0 mph 2.0 mph 94% 0.00 in
Compliments of Weather Underground